Hai Hua — XUDB9 — position and weather

sailwx.info

Track history (hours):
 
Tides and Currents Weather Stations Pressure Air Temp Water Temp Dewpoint Dewpoint Depression Visibility Wind Speed Wind Dir Waves Ship Positions

Hai Hua

Last reported at 2015-Aug-26 12:24 UTC. Time now 2015-Sep-01 20:25 UTC.
Position N 35°01' E 139°36'.

Length 69 m; draft 5.3 m.

Type: Cargo ship. MMSI: 515171000.

Date/timePositionNaut miles runAvg speedWind from/ knotsBaromVisibWave heightAir tempDewpointWater temp
2015-Aug-26 12:24N 35°01' E 139°36'910.2
2015-Aug-26 11:33N 35°07' E 139°43'10 9.8
2015-Aug-26 10:33N 35°17' E 139°45'9 9.4
2015-Aug-26 09:33N 35°26' E 139°44'3 2.7
2015-Aug-26 08:31N 35°29' E 139°47'0 0.0
2015-Aug-26 07:31N 35°29' E 139°47'0 0.0
2015-Aug-26 06:31N 35°29' E 139°47'0 0.0
2015-Aug-26 05:31N 35°29' E 139°47'0 0.0
2015-Aug-26 04:31N 35°29' E 139°47'0 0.0
2015-Aug-26 03:31N 35°29' E 139°47'0 0.0
2015-Aug-26 02:31N 35°29' E 139°47'0 0.0
2015-Aug-26 01:31N 35°29' E 139°47'0 0.0
2015-Aug-26 00:31N 35°29' E 139°47'0 0.1
2015-Aug-25 23:31N 35°29' E 139°47'0 0.0
2015-Aug-25 22:31N 35°29' E 139°47'0 0.0
2015-Aug-25 21:34N 35°29' E 139°47'0 0.0
2015-Aug-25 20:31N 35°29' E 139°46'0 0.0
2015-Aug-25 19:31N 35°29' E 139°46'0 0.0
2015-Aug-25 18:31N 35°29' E 139°46'0 0.0
2015-Aug-25 17:31N 35°29' E 139°46'0 0.0
2015-Aug-25 16:31N 35°29' E 139°46'0 0.0
2015-Aug-25 15:31N 35°29' E 139°47'0 0.1
2015-Aug-25 14:31N 35°29' E 139°46'0 0.0
2015-Aug-25 13:31N 35°29' E 139°46'0 0.0
2015-Aug-25 12:31N 35°29' E 139°46'0 0.0
2015-Aug-25 11:31N 35°29' E 139°46'0 0.0
2015-Aug-25 10:31N 35°29' E 139°46'0 0.0
2015-Aug-25 09:31N 35°29' E 139°46'0 0.0
2015-Aug-25 08:31N 35°29' E 139°46'1 1.1
2015-Aug-25 07:34N 35°30' E 139°46'0 0.0
2015-Aug-25 06:32N 35°30' E 139°46'0 0.0
2015-Aug-25 05:32N 35°30' E 139°46'0 0.0
2015-Aug-25 04:32N 35°30' E 139°46'0 0.0
2015-Aug-25 03:32N 35°30' E 139°46'0 0.0
2015-Aug-25 02:32N 35°30' E 139°46'0 0.0
2015-Aug-25 01:32N 35°30' E 139°46'0 0.0
2015-Aug-25 00:32N 35°30' E 139°46'0 0.0
2015-Aug-24 23:32N 35°30' E 139°46'0 0.0
2015-Aug-24 22:32N 35°30' E 139°46'0 0.0
2015-Aug-24 21:32N 35°30' E 139°46'0 0.0
2015-Aug-24 20:32N 35°30' E 139°46'0 0.0
2015-Aug-24 19:32N 35°30' E 139°46'0 0.0
2015-Aug-24 18:32N 35°30' E 139°46'0 0.0
2015-Aug-24 17:29N 35°30' E 139°46'0 0.0
2015-Aug-24 16:32N 35°30' E 139°46'0 0.0
2015-Aug-24 15:32N 35°30' E 139°46'0 0.0
2015-Aug-24 14:26N 35°30' E 139°46'0 0.0
2015-Aug-24 13:32N 35°30' E 139°46'0 0.0
2015-Aug-24 12:32N 35°30' E 139°46'0 0.0
2015-Aug-24 11:32N 35°30' E 139°46'0 0.0
2015-Aug-24 10:29N 35°30' E 139°46'0 0.0
2015-Aug-24 09:32N 35°30' E 139°46'0 0.0
2015-Aug-24 08:26N 35°30' E 139°46'0 0.0
2015-Aug-24 07:29N 35°30' E 139°46'0 0.0
2015-Aug-24 06:32N 35°30' E 139°46'0 0.0
2015-Aug-24 05:32N 35°30' E 139°46'0 0.0
2015-Aug-24 04:29N 35°30' E 139°46'0 0.0
2015-Aug-24 03:32N 35°30' E 139°46'0 0.0
2015-Aug-24 02:32N 35°30' E 139°46'0 0.0
2015-Aug-24 01:32N 35°30' E 139°46'0 0.0
2015-Aug-24 00:32N 35°30' E 139°46'0 0.0
2015-Aug-23 23:29N 35°30' E 139°46'0 0.0
2015-Aug-23 22:29N 35°30' E 139°46'1 1.2
2015-Aug-23 21:34N 35°29' E 139°45'3 2.5
2015-Aug-23 20:32N 35°29' E 139°48'0 0.0
2015-Aug-23 19:32N 35°29' E 139°48'0 0.0
2015-Aug-23 18:32N 35°29' E 139°48'0 0.0
2015-Aug-23 17:32N 35°29' E 139°48'0 0.0
2015-Aug-23 16:29N 35°29' E 139°48'0 0.0
2015-Aug-23 15:32N 35°29' E 139°48'0 0.0
2015-Aug-23 14:32N 35°29' E 139°48'0 0.0
2015-Aug-23 13:32N 35°29' E 139°48'0 0.0
2015-Aug-23 12:32N 35°29' E 139°48'0 0.0
2015-Aug-23 11:32N 35°29' E 139°48'0 0.0
2015-Aug-23 10:32N 35°29' E 139°48'0 0.0
2015-Aug-23 09:29N 35°29' E 139°48'0 0.0
2015-Aug-23 08:32N 35°29' E 139°48'0 0.0
2015-Aug-23 07:32N 35°29' E 139°48'0 0.0
2015-Aug-23 06:32N 35°29' E 139°48'0 0.0
2015-Aug-23 05:32N 35°29' E 139°48'0 0.0
2015-Aug-23 04:29N 35°29' E 139°48'0 0.0
2015-Aug-23 03:32N 35°29' E 139°48'0 0.0
2015-Aug-23 02:32N 35°29' E 139°48'0 0.0
2015-Aug-23 01:32N 35°29' E 139°48'0 0.0
2015-Aug-23 00:29N 35°29' E 139°48'0 0.0
2015-Aug-22 23:32N 35°29' E 139°48'0 0.0
2015-Aug-22 22:32N 35°29' E 139°48'0 0.0
2015-Aug-22 21:29N 35°29' E 139°48'0 0.0
2015-Aug-22 20:32N 35°29' E 139°48'0 0.0
2015-Aug-22 19:32N 35°29' E 139°48'0 0.0
2015-Aug-22 18:32N 35°29' E 139°48'0 0.0
2015-Aug-22 17:32N 35°29' E 139°48'0 0.0
2015-Aug-22 16:32N 35°29' E 139°48'0 0.0
2015-Aug-22 15:32N 35°29' E 139°48'0 0.0
2015-Aug-22 14:32N 35°29' E 139°48'0 0.1
2015-Aug-22 13:32N 35°29' E 139°48'0 0.0
2015-Aug-22 12:32N 35°29' E 139°48'0 0.0
2015-Aug-22 11:32N 35°29' E 139°48'0 0.0
2015-Aug-22 10:29N 35°29' E 139°48'0 0.0
2015-Aug-22 09:32N 35°29' E 139°48'0 0.0
2015-Aug-22 08:32N 35°29' E 139°48'0 0.0
2015-Aug-22 07:32N 35°29' E 139°48'0 0.0
2015-Aug-22 06:32N 35°29' E 139°48'0 0.0
2015-Aug-22 05:32N 35°29' E 139°48'0 0.0
2015-Aug-22 04:32N 35°29' E 139°48'0 0.0
2015-Aug-22 03:32N 35°29' E 139°48'0 0.0
2015-Aug-22 02:32N 35°29' E 139°48'0 0.0
2015-Aug-22 01:32N 35°29' E 139°48'0 0.0
2015-Aug-22 00:32N 35°29' E 139°48'0 0.0
2015-Aug-21 23:32N 35°29' E 139°48'0 0.0
2015-Aug-21 22:32N 35°29' E 139°48'0 0.0
2015-Aug-21 21:32N 35°29' E 139°48'0 0.0
2015-Aug-21 20:32N 35°29' E 139°48'0 0.0
2015-Aug-21 19:32N 35°29' E 139°48'0 0.0
2015-Aug-21 18:32N 35°29' E 139°48'0 0.0
2015-Aug-21 17:32N 35°29' E 139°48'0 0.0
2015-Aug-21 16:32N 35°29' E 139°48'0 0.0
2015-Aug-21 15:32N 35°29' E 139°48'0 0.0
2015-Aug-21 14:32N 35°29' E 139°48'0 0.0
2015-Aug-21 13:29N 35°29' E 139°48'0 0.0
2015-Aug-21 12:32N 35°29' E 139°48'0 0.0
2015-Aug-21 11:32N 35°29' E 139°48'0 0.1
2015-Aug-21 10:32N 35°29' E 139°48'0 0.0
2015-Aug-21 09:32N 35°29' E 139°48'0 0.0
2015-Aug-21 08:32N 35°29' E 139°48'0 0.0
2015-Aug-21 07:32N 35°29' E 139°48'0 0.1
2015-Aug-21 06:32N 35°29' E 139°48'0 0.1
2015-Aug-21 05:29N 35°29' E 139°48'0 0.0
2015-Aug-21 04:32N 35°29' E 139°48'0 0.0
2015-Aug-21 03:32N 35°29' E 139°48'0 0.0
2015-Aug-21 02:32N 35°29' E 139°48'0 0.0
2015-Aug-21 01:32N 35°29' E 139°48'0 0.0
2015-Aug-21 00:32N 35°29' E 139°48'0 0.0
2015-Aug-20 23:32N 35°29' E 139°48'0 0.0
2015-Aug-20 22:32N 35°29' E 139°48'4 4.3
2015-Aug-20 21:33N 35°25' E 139°46'1010.2
2015-Aug-20 20:33N 35°15' E 139°47'1010.5
2015-Aug-20 19:33N 35°04' E 139°45'11 9.5
2015-Aug-20 18:22N 34°53' E 139°47'11 9.9
2015-Aug-20 17:17N 34°54' E 140°00'7 9.4
2015-Aug-20 16:33N 34°58' E 140°07'19 9.0
2015-Aug-20 14:25N 35°08' E 140°27'8 8.1
2015-Aug-20 13:29N 35°12' E 140°35'20 9.9
2015-Aug-20 11:30N 35°28' E 140°49'1111.1
2015-Aug-20 10:33N 35°38' E 140°55'2210.4
2015-Aug-20 08:29N 35°59' E 140°51'4 0.4
2015-Aug-19 22:10N 35°55' E 140°52'6 9.5
2015-Aug-19 21:33N 35°50' E 140°54'10 9.5
2015-Aug-19 20:31N 35°40' E 140°57'5010.0
2015-Aug-19 15:32N 35°03' E 140°16'2912.4
2015-Aug-19 13:11N 34°48' E 139°46'  
Track history (hours):
 
Tides and Currents Weather Stations Pressure Air Temp Water Temp Dewpoint Dewpoint Depression Visibility Wind Speed Wind Dir Waves Ship Positions

Hai Hua

Last reported at 2015-Aug-26 12:24 UTC. Time now 2015-Sep-01 20:25 UTC.
Position N 35°01' E 139°36'.

Length 69 m; draft 5.3 m.

Type: Cargo ship. MMSI: 515171000.

Date/timePositionNaut miles runAvg speedWind from/ knotsBaromVisibWave heightAir tempDewpointWater temp
2015-Aug-26 12:24N 35°01' E 139°36'910.2
2015-Aug-26 11:33N 35°07' E 139°43'10 9.8
2015-Aug-26 10:33N 35°17' E 139°45'9 9.4
2015-Aug-26 09:33N 35°26' E 139°44'3 2.7
2015-Aug-26 08:31N 35°29' E 139°47'0 0.0
2015-Aug-26 07:31N 35°29' E 139°47'0 0.0
2015-Aug-26 06:31N 35°29' E 139°47'0 0.0
2015-Aug-26 05:31N 35°29' E 139°47'0 0.0
2015-Aug-26 04:31N 35°29' E 139°47'0 0.0
2015-Aug-26 03:31N 35°29' E 139°47'0 0.0
2015-Aug-26 02:31N 35°29' E 139°47'0 0.0
2015-Aug-26 01:31N 35°29' E 139°47'0 0.0
2015-Aug-26 00:31N 35°29' E 139°47'0 0.1
2015-Aug-25 23:31N 35°29' E 139°47'0 0.0
2015-Aug-25 22:31N 35°29' E 139°47'0 0.0
2015-Aug-25 21:34N 35°29' E 139°47'0 0.0
2015-Aug-25 20:31N 35°29' E 139°46'0 0.0
2015-Aug-25 19:31N 35°29' E 139°46'0 0.0
2015-Aug-25 18:31N 35°29' E 139°46'0 0.0
2015-Aug-25 17:31N 35°29' E 139°46'0 0.0
2015-Aug-25 16:31N 35°29' E 139°46'0 0.0
2015-Aug-25 15:31N 35°29' E 139°47'0 0.1
2015-Aug-25 14:31N 35°29' E 139°46'0 0.0
2015-Aug-25 13:31N 35°29' E 139°46'0 0.0
2015-Aug-25 12:31N 35°29' E 139°46'0 0.0
2015-Aug-25 11:31N 35°29' E 139°46'0 0.0
2015-Aug-25 10:31N 35°29' E 139°46'0 0.0
2015-Aug-25 09:31N 35°29' E 139°46'0 0.0
2015-Aug-25 08:31N 35°29' E 139°46'1 1.1
2015-Aug-25 07:34N 35°30' E 139°46'0 0.0
2015-Aug-25 06:32N 35°30' E 139°46'0 0.0
2015-Aug-25 05:32N 35°30' E 139°46'0 0.0
2015-Aug-25 04:32N 35°30' E 139°46'0 0.0
2015-Aug-25 03:32N 35°30' E 139°46'0 0.0
2015-Aug-25 02:32N 35°30' E 139°46'0 0.0
2015-Aug-25 01:32N 35°30' E 139°46'0 0.0
2015-Aug-25 00:32N 35°30' E 139°46'0 0.0
2015-Aug-24 23:32N 35°30' E 139°46'0 0.0
2015-Aug-24 22:32N 35°30' E 139°46'0 0.0
2015-Aug-24 21:32N 35°30' E 139°46'0 0.0
2015-Aug-24 20:32N 35°30' E 139°46'0 0.0
2015-Aug-24 19:32N 35°30' E 139°46'0 0.0
2015-Aug-24 18:32N 35°30' E 139°46'0 0.0
2015-Aug-24 17:29N 35°30' E 139°46'0 0.0
2015-Aug-24 16:32N 35°30' E 139°46'0 0.0
2015-Aug-24 15:32N 35°30' E 139°46'0 0.0
2015-Aug-24 14:26N 35°30' E 139°46'0 0.0
2015-Aug-24 13:32N 35°30' E 139°46'0 0.0
2015-Aug-24 12:32N 35°30' E 139°46'0 0.0
2015-Aug-24 11:32N 35°30' E 139°46'0 0.0
2015-Aug-24 10:29N 35°30' E 139°46'0 0.0
2015-Aug-24 09:32N 35°30' E 139°46'0 0.0
2015-Aug-24 08:26N 35°30' E 139°46'0 0.0
2015-Aug-24 07:29N 35°30' E 139°46'0 0.0
2015-Aug-24 06:32N 35°30' E 139°46'0 0.0
2015-Aug-24 05:32N 35°30' E 139°46'0 0.0
2015-Aug-24 04:29N 35°30' E 139°46'0 0.0
2015-Aug-24 03:32N 35°30' E 139°46'0 0.0
2015-Aug-24 02:32N 35°30' E 139°46'0 0.0
2015-Aug-24 01:32N 35°30' E 139°46'0 0.0
2015-Aug-24 00:32N 35°30' E 139°46'0 0.0
2015-Aug-23 23:29N 35°30' E 139°46'0 0.0
2015-Aug-23 22:29N 35°30' E 139°46'1 1.2
2015-Aug-23 21:34N 35°29' E 139°45'3 2.5
2015-Aug-23 20:32N 35°29' E 139°48'0 0.0
2015-Aug-23 19:32N 35°29' E 139°48'0 0.0
2015-Aug-23 18:32N 35°29' E 139°48'0 0.0
2015-Aug-23 17:32N 35°29' E 139°48'0 0.0
2015-Aug-23 16:29N 35°29' E 139°48'0 0.0
2015-Aug-23 15:32N 35°29' E 139°48'0 0.0
2015-Aug-23 14:32N 35°29' E 139°48'0 0.0
2015-Aug-23 13:32N 35°29' E 139°48'0 0.0
2015-Aug-23 12:32N 35°29' E 139°48'0 0.0
2015-Aug-23 11:32N 35°29' E 139°48'0 0.0
2015-Aug-23 10:32N 35°29' E 139°48'0 0.0
2015-Aug-23 09:29N 35°29' E 139°48'0 0.0
2015-Aug-23 08:32N 35°29' E 139°48'0 0.0
2015-Aug-23 07:32N 35°29' E 139°48'0 0.0
2015-Aug-23 06:32N 35°29' E 139°48'0 0.0
2015-Aug-23 05:32N 35°29' E 139°48'0 0.0
2015-Aug-23 04:29N 35°29' E 139°48'0 0.0
2015-Aug-23 03:32N 35°29' E 139°48'0 0.0
2015-Aug-23 02:32N 35°29' E 139°48'0 0.0
2015-Aug-23 01:32N 35°29' E 139°48'0 0.0
2015-Aug-23 00:29N 35°29' E 139°48'0 0.0
2015-Aug-22 23:32N 35°29' E 139°48'0 0.0
2015-Aug-22 22:32N 35°29' E 139°48'0 0.0
2015-Aug-22 21:29N 35°29' E 139°48'0 0.0
2015-Aug-22 20:32N 35°29' E 139°48'0 0.0
2015-Aug-22 19:32N 35°29' E 139°48'0 0.0
2015-Aug-22 18:32N 35°29' E 139°48'0 0.0
2015-Aug-22 17:32N 35°29' E 139°48'0 0.0
2015-Aug-22 16:32N 35°29' E 139°48'0 0.0
2015-Aug-22 15:32N 35°29' E 139°48'0 0.0
2015-Aug-22 14:32N 35°29' E 139°48'0 0.1
2015-Aug-22 13:32N 35°29' E 139°48'0 0.0
2015-Aug-22 12:32N 35°29' E 139°48'0 0.0
2015-Aug-22 11:32N 35°29' E 139°48'0 0.0
2015-Aug-22 10:29N 35°29' E 139°48'0 0.0
2015-Aug-22 09:32N 35°29' E 139°48'0 0.0
2015-Aug-22 08:32N 35°29' E 139°48'0 0.0
2015-Aug-22 07:32N 35°29' E 139°48'0 0.0
2015-Aug-22 06:32N 35°29' E 139°48'0 0.0
2015-Aug-22 05:32N 35°29' E 139°48'0 0.0
2015-Aug-22 04:32N 35°29' E 139°48'0 0.0
2015-Aug-22 03:32N 35°29' E 139°48'0 0.0
2015-Aug-22 02:32N 35°29' E 139°48'0 0.0
2015-Aug-22 01:32N 35°29' E 139°48'0 0.0
2015-Aug-22 00:32N 35°29' E 139°48'0 0.0
2015-Aug-21 23:32N 35°29' E 139°48'0 0.0
2015-Aug-21 22:32N 35°29' E 139°48'0 0.0
2015-Aug-21 21:32N 35°29' E 139°48'0 0.0
2015-Aug-21 20:32N 35°29' E 139°48'0 0.0
2015-Aug-21 19:32N 35°29' E 139°48'0 0.0
2015-Aug-21 18:32N 35°29' E 139°48'0 0.0
2015-Aug-21 17:32N 35°29' E 139°48'0 0.0
2015-Aug-21 16:32N 35°29' E 139°48'0 0.0
2015-Aug-21 15:32N 35°29' E 139°48'0 0.0
2015-Aug-21 14:32N 35°29' E 139°48'0 0.0
2015-Aug-21 13:29N 35°29' E 139°48'0 0.0
2015-Aug-21 12:32N 35°29' E 139°48'0 0.0
2015-Aug-21 11:32N 35°29' E 139°48'0 0.1
2015-Aug-21 10:32N 35°29' E 139°48'0 0.0
2015-Aug-21 09:32N 35°29' E 139°48'0 0.0
2015-Aug-21 08:32N 35°29' E 139°48'0 0.0
2015-Aug-21 07:32N 35°29' E 139°48'0 0.1
2015-Aug-21 06:32N 35°29' E 139°48'0 0.1
2015-Aug-21 05:29N 35°29' E 139°48'0 0.0
2015-Aug-21 04:32N 35°29' E 139°48'0 0.0
2015-Aug-21 03:32N 35°29' E 139°48'0 0.0
2015-Aug-21 02:32N 35°29' E 139°48'0 0.0
2015-Aug-21 01:32N 35°29' E 139°48'0 0.0
2015-Aug-21 00:32N 35°29' E 139°48'0 0.0
2015-Aug-20 23:32N 35°29' E 139°48'0 0.0
2015-Aug-20 22:32N 35°29' E 139°48'4 4.3
2015-Aug-20 21:33N 35°25' E 139°46'1010.2
2015-Aug-20 20:33N 35°15' E 139°47'1010.5
2015-Aug-20 19:33N 35°04' E 139°45'11 9.5
2015-Aug-20 18:22N 34°53' E 139°47'11 9.9
2015-Aug-20 17:17N 34°54' E 140°00'7 9.4
2015-Aug-20 16:33N 34°58' E 140°07'19 9.0
2015-Aug-20 14:25N 35°08' E 140°27'8 8.1
2015-Aug-20 13:29N 35°12' E 140°35'20 9.9
2015-Aug-20 11:30N 35°28' E 140°49'1111.1
2015-Aug-20 10:33N 35°38' E 140°55'2210.4
2015-Aug-20 08:29N 35°59' E 140°51'4 0.4
2015-Aug-19 22:10N 35°55' E 140°52'6 9.5
2015-Aug-19 21:33N 35°50' E 140°54'10 9.5
2015-Aug-19 20:31N 35°40' E 140°57'5010.0
2015-Aug-19 15:32N 35°03' E 140°16'2912.4
2015-Aug-19 13:11N 34°48' E 139°46'  

Dump ship's entire track history